Charter Quote
Worldwide +1-877-727-2538 Call
Select Language Lang
SAFETY RELIABILITY EXPERIENCE

Volkel Airport (EHVK) - Jet Charter Services

AIRPORT INFORMATION
ICAOEHVK
IATAUDE
LOCATIONVolkel, Netherlands
FACILITY TYPEAIRPORT
Runway Length (ft) Width (ft) Surface Type Elevation (ft)
24L/06R 9931 74 ASP 71.96721
24R/06L 9922 148 ASP 71.96721

At Paramount Business Jets you can hire chartered private jets to and from Volkel Airport with as little as 4 hours of notice. All flights booked via Paramount Business Jets are operated by certified direct air carriers that meet and exceed the FAA part 135 and 121 protocol or a foreign equivalent safety authority. Furthermore, Paramount Business Jets subscribes to ARGUS for their third party safety checks of operators, aircraft, and crews prior each and every flight to and from Volkel Airport and worldwide.

  • Quote a trip using Volkel Airport or call us 24/7 - 365 days a year at +1-877-727-2538.
Questions? Call +1-877-727-2538

METAR Weather Data at Volkel Airport, EHVK, UDE

STATIONEHVK
OBSERVEDTue Mar 19, 03:55 UTC
NOWTue Mar 19, 04:23 UTC
AGE28 min ago
WINDWSW at 5 mph
VISIBILITY16 miles
CLOUDSpartly cloudy
TEMP30°F (-1°C)
WIND CHILL25°F (-4°C)
DEWPT30°F (-1°C)
HUMIDITY100%
BAROMETER1025 hPa (30.27 in Hg)
METAREHVK 190355Z AUTO 24004KT 9999 FEW036 M01/M01 Q1025 BLU

Call us on +1-877-727-2538 (24 Hours) to Hire a Private Jet or Get a Quick Quote.

Find Airports Near any Location

Processing
...